sensor_id;sensor_type;location;lat;lon;timestamp;pressure;altitude;pressure_sealevel;temperature;humidity
59240;BME280;45010;53.640;10.578;2023-02-03T00:00:58;101021.25;;;24.98;32.78
59240;BME280;45010;53.640;10.578;2023-02-03T00:03:59;101027.03;;;24.95;32.79
59240;BME280;45010;53.640;10.578;2023-02-03T00:06:59;101015.69;;;25.00;32.68
59240;BME280;45010;53.640;10.578;2023-02-03T00:09:59;101019.16;;;25.00;32.88
59240;BME280;45010;53.640;10.578;2023-02-03T00:13:00;101013.03;;;25.00;32.76
59240;BME280;45010;53.640;10.578;2023-02-03T00:16:00;101007.44;;;25.01;32.63
59240;BME280;45010;53.640;10.578;2023-02-03T00:19:01;100998.44;;;25.02;32.81
59240;BME280;45010;53.640;10.578;2023-02-03T00:22:02;100997.38;;;25.03;32.72
59240;BME280;45010;53.640;10.578;2023-02-03T00:25:03;100983.00;;;25.04;32.68
59240;BME280;45010;53.640;10.578;2023-02-03T00:28:03;100975.00;;;25.04;32.66
59240;BME280;45010;53.640;10.578;2023-02-03T00:31:04;100973.94;;;25.05;32.69
59240;BME280;45010;53.640;10.578;2023-02-03T00:34:05;100965.94;;;25.05;32.79
59240;BME280;45010;53.640;10.578;2023-02-03T00:37:05;100963.25;;;25.05;32.57
59240;BME280;45010;53.640;10.578;2023-02-03T00:40:06;100971.28;;;25.05;32.71
59240;BME280;45010;53.640;10.578;2023-02-03T00:43:06;100955.25;;;25.05;32.62
59240;BME280;45010;53.640;10.578;2023-02-03T00:46:07;100950.97;;;25.04;32.69
59240;BME280;45010;53.640;10.578;2023-02-03T00:49:07;100947.25;;;25.05;32.60
59240;BME280;45010;53.640;10.578;2023-02-03T00:52:07;100912.91;;;24.97;32.59
59240;BME280;45010;53.640;10.578;2023-02-03T00:55:07;100941.09;;;25.05;32.55
59240;BME280;45010;53.640;10.578;2023-02-03T00:58:08;100926.81;;;24.99;32.80
59240;BME280;45010;53.640;10.578;2023-02-03T01:01:09;100919.28;;;24.96;32.85
59240;BME280;45010;53.640;10.578;2023-02-03T01:04:09;100934.97;;;25.04;32.73
59240;BME280;45010;53.640;10.578;2023-02-03T01:07:10;100915.22;;;25.05;32.66
59240;BME280;45010;53.640;10.578;2023-02-03T01:10:10;100892.28;;;25.04;32.61
59240;BME280;45010;53.640;10.578;2023-02-03T01:13:11;100898.66;;;25.03;32.51
59240;BME280;45010;53.640;10.578;2023-02-03T01:16:16;100896.78;;;25.04;32.60
59240;BME280;45010;53.640;10.578;2023-02-03T01:19:17;100903.72;;;25.05;33.04
59240;BME280;45010;53.640;10.578;2023-02-03T01:22:18;100885.19;;;24.98;32.57
59240;BME280;45010;53.640;10.578;2023-02-03T01:25:19;100883.22;;;25.05;32.52
59240;BME280;45010;53.640;10.578;2023-02-03T01:28:19;100886.44;;;25.07;32.54
59240;BME280;45010;53.640;10.578;2023-02-03T01:31:28;100867.19;;;25.05;32.34
59240;BME280;45010;53.640;10.578;2023-02-03T01:34:28;100846.78;;;24.99;32.30
59240;BME280;45010;53.640;10.578;2023-02-03T01:37:29;100841.00;;;25.02;32.38
59240;BME280;45010;53.640;10.578;2023-02-03T01:40:29;100823.81;;;24.98;32.18
59240;BME280;45010;53.640;10.578;2023-02-03T01:43:38;100798.06;;;24.92;32.21
59240;BME280;45010;53.640;10.578;2023-02-03T01:46:44;100793.28;;;24.94;32.27
59240;BME280;45010;53.640;10.578;2023-02-03T01:49:54;100796.31;;;24.85;32.28
59240;BME280;45010;53.640;10.578;2023-02-03T01:52:59;100787.03;;;24.88;32.21
59240;BME280;45010;53.640;10.578;2023-02-03T01:56:02;100791.78;;;24.86;32.18
59240;BME280;45010;53.640;10.578;2023-02-03T01:59:04;100782.25;;;24.78;32.44
59240;BME280;45010;53.640;10.578;2023-02-03T02:02:06;100775.75;;;24.74;32.24
59240;BME280;45010;53.640;10.578;2023-02-03T02:05:12;100768.78;;;24.61;32.32
59240;BME280;45010;53.640;10.578;2023-02-03T02:08:15;100782.00;;;24.68;32.44
59240;BME280;45010;53.640;10.578;2023-02-03T02:11:18;100778.78;;;24.66;32.49
59240;BME280;45010;53.640;10.578;2023-02-03T02:14:20;100770.66;;;24.61;32.50
59240;BME280;45010;53.640;10.578;2023-02-03T02:21:10;100782.94;;;24.62;32.54
59240;BME280;45010;53.640;10.578;2023-02-03T02:34:55;100775.72;;;24.50;32.50
59240;BME280;45010;53.640;10.578;2023-02-03T02:38:14;100756.50;;;24.48;32.42
59240;BME280;45010;53.640;10.578;2023-02-03T02:41:38;100731.91;;;24.46;32.58
59240;BME280;45010;53.640;10.578;2023-02-03T02:44:46;100743.03;;;24.43;32.56
59240;BME280;45010;53.640;10.578;2023-02-03T02:47:49;100761.09;;;24.41;32.55
59240;BME280;45010;53.640;10.578;2023-02-03T02:50:52;100730.94;;;24.28;32.74
59240;BME280;45010;53.640;10.578;2023-02-03T02:53:57;100733.38;;;24.30;32.77
59240;BME280;45010;53.640;10.578;2023-02-03T02:57:02;100735.47;;;24.28;32.83
59240;BME280;45010;53.640;10.578;2023-02-03T03:00:04;100738.50;;;24.31;32.66
59240;BME280;45010;53.640;10.578;2023-02-03T03:03:17;100724.47;;;24.24;32.52
59240;BME280;45010;53.640;10.578;2023-02-03T03:06:28;100726.44;;;24.29;32.52
59240;BME280;45010;53.640;10.578;2023-02-03T03:09:40;100700.78;;;24.16;32.70
59240;BME280;45010;53.640;10.578;2023-02-03T03:12:46;100699.16;;;24.15;32.81
59240;BME280;45010;53.640;10.578;2023-02-03T03:15:52;100702.53;;;24.22;32.81
59240;BME280;45010;53.640;10.578;2023-02-03T03:19:04;100701.97;;;24.20;32.83
59240;BME280;45010;53.640;10.578;2023-02-03T03:22:08;100686.41;;;24.17;32.71
59240;BME280;45010;53.640;10.578;2023-02-03T03:25:15;100653.38;;;24.06;32.83
59240;BME280;45010;53.640;10.578;2023-02-03T03:28:23;100670.09;;;24.13;32.80
59240;BME280;45010;53.640;10.578;2023-02-03T03:31:25;100673.00;;;24.12;32.95
59240;BME280;45010;53.640;10.578;2023-02-03T03:34:27;100660.13;;;24.09;32.90
59240;BME280;45010;53.640;10.578;2023-02-03T03:37:36;100649.78;;;24.00;32.80
59240;BME280;45010;53.640;10.578;2023-02-03T03:40:42;100636.78;;;23.92;32.94
59240;BME280;45010;53.640;10.578;2023-02-03T03:43:43;100657.53;;;24.02;32.83
59240;BME280;45010;53.640;10.578;2023-02-03T03:46:54;100647.56;;;23.97;33.07
59240;BME280;45010;53.640;10.578;2023-02-03T03:49:58;100624.97;;;23.88;32.83
59240;BME280;45010;53.640;10.578;2023-02-03T03:53:01;100631.09;;;23.88;33.19
59240;BME280;45010;53.640;10.578;2023-02-03T03:56:05;100633.88;;;23.94;33.14
59240;BME280;45010;53.640;10.578;2023-02-03T03:59:08;100631.44;;;23.92;32.96
59240;BME280;45010;53.640;10.578;2023-02-03T04:02:12;100630.06;;;23.89;33.04
59240;BME280;45010;53.640;10.578;2023-02-03T04:05:13;100626.59;;;23.89;33.00
59240;BME280;45010;53.640;10.578;2023-02-03T04:08:13;100628.66;;;23.87;33.28
59240;BME280;45010;53.640;10.578;2023-02-03T04:11:14;100634.22;;;23.85;33.21
59240;BME280;45010;53.640;10.578;2023-02-03T04:14:35;100609.56;;;23.78;33.35
59240;BME280;45010;53.640;10.578;2023-02-03T04:17:39;100626.69;;;23.82;33.07
59240;BME280;45010;53.640;10.578;2023-02-03T04:20:40;100616.25;;;23.81;33.09
59240;BME280;45010;53.640;10.578;2023-02-03T04:23:40;100619.97;;;23.80;33.35
59240;BME280;45010;53.640;10.578;2023-02-03T04:26:41;100594.13;;;23.68;33.26
59240;BME280;45010;53.640;10.578;2023-02-03T04:29:41;100607.13;;;23.76;33.19
59240;BME280;45010;53.640;10.578;2023-02-03T04:32:41;100599.34;;;23.75;33.30
59240;BME280;45010;53.640;10.578;2023-02-03T04:35:42;100594.25;;;23.73;33.32
59240;BME280;45010;53.640;10.578;2023-02-03T04:38:42;100560.91;;;23.71;33.32
59240;BME280;45010;53.640;10.578;2023-02-03T04:41:43;100561.00;;;23.64;33.16
59240;BME280;45010;53.640;10.578;2023-02-03T04:44:43;100557.41;;;23.58;33.29
59240;BME280;45010;53.640;10.578;2023-02-03T04:47:43;100559.75;;;23.67;33.28
59240;BME280;45010;53.640;10.578;2023-02-03T04:50:44;100569.56;;;23.66;33.54
59240;BME280;45010;53.640;10.578;2023-02-03T04:53:44;100565.53;;;23.63;33.30
59240;BME280;45010;53.640;10.578;2023-02-03T04:56:44;100560.41;;;23.62;33.44
59240;BME280;45010;53.640;10.578;2023-02-03T04:59:45;100556.97;;;23.61;33.60
59240;BME280;45010;53.640;10.578;2023-02-03T05:02:45;100565.16;;;23.60;33.59
59240;BME280;45010;53.640;10.578;2023-02-03T05:05:45;100558.22;;;23.59;33.74
59240;BME280;45010;53.640;10.578;2023-02-03T05:08:46;100552.91;;;23.59;33.51
59240;BME280;45010;53.640;10.578;2023-02-03T05:11:46;100546.97;;;23.57;33.51
59240;BME280;45010;53.640;10.578;2023-02-03T05:14:47;100542.13;;;23.54;33.96
59240;BME280;45010;53.640;10.578;2023-02-03T05:17:47;100515.47;;;23.42;33.72
59240;BME280;45010;53.640;10.578;2023-02-03T05:20:47;100535.19;;;23.53;33.63
59240;BME280;45010;53.640;10.578;2023-02-03T05:23:48;100538.88;;;23.51;33.79
59240;BME280;45010;53.640;10.578;2023-02-03T05:26:48;100526.84;;;23.49;33.99
59240;BME280;45010;53.640;10.578;2023-02-03T05:29:48;100539.34;;;23.48;33.69
59240;BME280;45010;53.640;10.578;2023-02-03T05:32:49;100521.75;;;23.47;33.88
59240;BME280;45010;53.640;10.578;2023-02-03T05:35:49;100526.50;;;23.45;33.67
59240;BME280;45010;53.640;10.578;2023-02-03T05:38:49;100526.50;;;23.45;33.84
59240;BME280;45010;53.640;10.578;2023-02-03T05:41:50;100520.56;;;23.43;33.95
59240;BME280;45010;53.640;10.578;2023-02-03T05:44:53;100498.44;;;23.31;33.87
59240;BME280;45010;53.640;10.578;2023-02-03T05:47:53;100521.63;;;23.42;33.95
59240;BME280;45010;53.640;10.578;2023-02-03T05:50:53;100514.69;;;23.41;33.77
59240;BME280;45010;53.640;10.578;2023-02-03T05:53:54;100521.03;;;23.40;33.87
59240;BME280;45010;53.640;10.578;2023-02-03T05:56:54;100503.44;;;23.39;34.15
59240;BME280;45010;53.640;10.578;2023-02-03T05:59:54;100464.16;;;23.22;34.11
59240;BME280;45010;53.640;10.578;2023-02-03T06:02:57;100469.72;;;23.21;34.05
59240;BME280;45010;53.640;10.578;2023-02-03T06:05:58;100500.41;;;23.35;34.16
59240;BME280;45010;53.640;10.578;2023-02-03T06:09:04;100490.59;;;23.36;34.10
59240;BME280;45010;53.640;10.578;2023-02-03T06:12:05;100478.34;;;23.35;34.24
59240;BME280;45010;53.640;10.578;2023-02-03T06:15:06;100457.94;;;23.29;33.82
59240;BME280;45010;53.640;10.578;2023-02-03T06:18:07;100451.00;;;23.28;34.00
59240;BME280;45010;53.640;10.578;2023-02-03T06:21:07;100451.00;;;23.28;34.36
59240;BME280;45010;53.640;10.578;2023-02-03T06:24:08;100442.34;;;23.32;34.02
59240;BME280;45010;53.640;10.578;2023-02-03T06:27:09;100423.22;;;23.23;34.26
59240;BME280;45010;53.640;10.578;2023-02-03T06:30:10;100425.78;;;23.30;34.55
59240;BME280;45010;53.640;10.578;2023-02-03T06:33:10;100422.28;;;23.30;34.45
59240;BME280;45010;53.640;10.578;2023-02-03T06:36:10;100411.66;;;23.30;34.51
59240;BME280;45010;53.640;10.578;2023-02-03T06:39:11;100413.75;;;23.28;34.25
59240;BME280;45010;53.640;10.578;2023-02-03T06:42:11;100413.75;;;23.28;34.28
59240;BME280;45010;53.640;10.578;2023-02-03T06:45:12;100390.59;;;23.16;34.40
59240;BME280;45010;53.640;10.578;2023-02-03T06:48:13;100415.56;;;23.27;34.39
59240;BME280;45010;53.640;10.578;2023-02-03T06:51:13;100413.75;;;23.28;34.42
59240;BME280;45010;53.640;10.578;2023-02-03T06:54:13;100384.22;;;23.17;34.58
59240;BME280;45010;53.640;10.578;2023-02-03T06:57:14;100367.34;;;23.11;34.49
59240;BME280;45010;53.640;10.578;2023-02-03T07:00:16;100373.59;;;23.17;34.53
59240;BME280;45010;53.640;10.578;2023-02-03T07:03:16;100389.19;;;23.25;34.66
59240;BME280;45010;53.640;10.578;2023-02-03T07:06:17;100387.59;;;23.24;34.53
59240;BME280;45010;53.640;10.578;2023-02-03T07:09:17;100391.84;;;23.25;34.61
59240;BME280;45010;53.640;10.578;2023-02-03T07:12:19;100374.50;;;23.23;34.61
59240;BME280;45010;53.640;10.578;2023-02-03T07:15:19;100372.66;;;23.23;35.08
59240;BME280;45010;53.640;10.578;2023-02-03T07:18:19;100376.94;;;23.24;34.86
59240;BME280;45010;53.640;10.578;2023-02-03T07:21:23;100371.63;;;23.24;34.92
59240;BME280;45010;53.640;10.578;2023-02-03T07:24:23;100380.44;;;23.25;34.82
59240;BME280;45010;53.640;10.578;2023-02-03T07:27:24;100381.22;;;23.25;34.61
59240;BME280;45010;53.640;10.578;2023-02-03T07:30:24;100369.19;;;23.23;34.97
59240;BME280;45010;53.640;10.578;2023-02-03T07:33:25;100384.91;;;23.24;34.78
59240;BME280;45010;53.640;10.578;2023-02-03T07:36:25;100394.53;;;23.25;34.99
59240;BME280;45010;53.640;10.578;2023-02-03T07:39:27;100393.72;;;23.25;34.65
59240;BME280;45010;53.640;10.578;2023-02-03T07:42:28;100376.94;;;23.24;34.79
59240;BME280;45010;53.640;10.578;2023-02-03T07:45:28;100372.44;;;23.25;34.96
59240;BME280;45010;53.640;10.578;2023-02-03T07:48:29;100368.84;;;23.19;34.69
59240;BME280;45010;53.640;10.578;2023-02-03T07:51:29;100387.59;;;23.24;34.94
59240;BME280;45010;53.640;10.578;2023-02-03T07:54:29;100392.13;;;23.24;35.23
59240;BME280;45010;53.640;10.578;2023-02-03T07:57:30;100403.53;;;23.24;35.00
59240;BME280;45010;53.640;10.578;2023-02-03T08:00:30;100395.31;;;23.14;35.33
59240;BME280;45010;53.640;10.578;2023-02-03T08:03:31;100424.81;;;23.24;35.22
59240;BME280;45010;53.640;10.578;2023-02-03T08:06:31;100421.22;;;23.07;35.47
59240;BME280;45010;53.640;10.578;2023-02-03T08:09:31;100456.75;;;23.24;35.61
59240;BME280;45010;53.640;10.578;2023-02-03T08:12:32;100456.75;;;23.24;35.75
59240;BME280;45010;53.640;10.578;2023-02-03T08:15:33;100468.22;;;23.25;35.38
59240;BME280;45010;53.640;10.578;2023-02-03T08:18:33;100458.38;;;23.25;35.24
59240;BME280;45010;53.640;10.578;2023-02-03T08:21:33;100461.28;;;23.24;35.86
59240;BME280;45010;53.640;10.578;2023-02-03T08:24:34;100448.19;;;23.22;35.88
59240;BME280;45010;53.640;10.578;2023-02-03T08:27:35;100472.72;;;23.24;36.39
59240;BME280;45010;53.640;10.578;2023-02-03T08:30:35;100460.69;;;23.22;36.14
59240;BME280;45010;53.640;10.578;2023-02-03T08:33:36;100412.25;;;22.89;36.56
59240;BME280;45010;53.640;10.578;2023-02-03T08:36:36;100484.53;;;23.29;36.48
59240;BME280;45010;53.640;10.578;2023-02-03T08:39:39;100477.97;;;23.31;36.40
59240;BME280;45010;53.640;10.578;2023-02-03T08:42:39;100458.97;;;23.28;36.16
59240;BME280;45010;53.640;10.578;2023-02-03T08:45:39;100473.81;;;23.35;36.20
59240;BME280;45010;53.640;10.578;2023-02-03T08:48:41;100474.19;;;23.39;36.48
59240;BME280;45010;53.640;10.578;2023-02-03T08:51:43;100446.53;;;23.40;36.24
59240;BME280;45010;53.640;10.578;2023-02-03T08:54:43;100434.84;;;23.41;35.99
59240;BME280;45010;53.640;10.578;2023-02-03T08:57:44;100431.69;;;23.44;35.97
59240;BME280;45010;53.640;10.578;2023-02-03T09:00:44;100448.25;;;23.46;35.87
59240;BME280;45010;53.640;10.578;2023-02-03T09:03:47;100456.81;;;23.48;36.04
59240;BME280;45010;53.640;10.578;2023-02-03T09:06:48;100460.06;;;23.50;35.80
59240;BME280;45010;53.640;10.578;2023-02-03T09:09:48;100477.66;;;23.51;35.69
59240;BME280;45010;53.640;10.578;2023-02-03T09:12:48;100465.97;;;23.53;35.64
59240;BME280;45010;53.640;10.578;2023-02-03T09:15:49;100465.50;;;23.56;35.89
59240;BME280;45010;53.640;10.578;2023-02-03T09:18:49;100450.56;;;23.55;35.79
59240;BME280;45010;53.640;10.578;2023-02-03T09:21:50;100472.00;;;23.60;35.91
59240;BME280;45010;53.640;10.578;2023-02-03T09:24:50;100470.72;;;23.62;35.69
59240;BME280;45010;53.640;10.578;2023-02-03T09:27:51;100481.94;;;23.64;35.58
59240;BME280;45010;53.640;10.578;2023-02-03T09:30:51;100482.78;;;23.65;35.52
59240;BME280;45010;53.640;10.578;2023-02-03T09:33:51;100492.94;;;23.68;35.41
59240;BME280;45010;53.640;10.578;2023-02-03T09:36:51;100505.25;;;23.69;35.75
59240;BME280;45010;53.640;10.578;2023-02-03T09:39:52;100506.38;;;23.73;35.76
59240;BME280;45010;53.640;10.578;2023-02-03T09:46:25;100523.28;;;23.67;35.33
59240;BME280;45010;53.640;10.578;2023-02-03T09:49:37;100560.81;;;23.77;35.10
59240;BME280;45010;53.640;10.578;2023-02-03T09:52:40;100547.25;;;23.79;35.15
59240;BME280;45010;53.640;10.578;2023-02-03T09:55:44;100539.03;;;23.81;35.21
59240;BME280;45010;53.640;10.578;2023-02-03T09:58:45;100542.28;;;23.83;35.29
59240;BME280;45010;53.640;10.578;2023-02-03T10:01:54;100554.78;;;23.82;35.48
59240;BME280;45010;53.640;10.578;2023-02-03T10:05:03;100543.00;;;23.78;35.11
59240;BME280;45010;53.640;10.578;2023-02-03T10:18:23;100566.38;;;23.88;34.97
59240;BME280;45010;53.640;10.578;2023-02-03T10:21:34;100564.28;;;23.90;35.01
59240;BME280;45010;53.640;10.578;2023-02-03T10:24:40;100546.44;;;23.78;34.94
59240;BME280;45010;53.640;10.578;2023-02-03T10:27:42;100569.16;;;23.93;34.64
59240;BME280;45010;53.640;10.578;2023-02-03T10:30:47;100562.78;;;23.94;34.73
59240;BME280;45010;53.640;10.578;2023-02-03T10:34:09;100572.41;;;23.95;34.76
59240;BME280;45010;53.640;10.578;2023-02-03T10:37:28;100558.03;;;23.96;34.72
59240;BME280;45010;53.640;10.578;2023-02-03T10:40:29;100563.38;;;23.96;35.08
59240;BME280;45010;53.640;10.578;2023-02-03T10:43:31;100542.84;;;23.85;34.86
59240;BME280;45010;53.640;10.578;2023-02-03T10:46:47;100577.25;;;23.98;35.02
59240;BME280;45010;53.640;10.578;2023-02-03T10:49:52;100574.38;;;24.00;34.89
59240;BME280;45010;53.640;10.578;2023-02-03T10:53:30;100577.03;;;24.00;34.66
59240;BME280;45010;53.640;10.578;2023-02-03T10:56:35;100569.88;;;24.00;34.60
59240;BME280;45010;53.640;10.578;2023-02-03T10:59:41;100574.03;;;23.96;34.72
59240;BME280;45010;53.640;10.578;2023-02-03T11:02:42;100585.38;;;24.03;34.84
59240;BME280;45010;53.640;10.578;2023-02-03T11:05:42;100588.63;;;24.05;34.37
59240;BME280;45010;53.640;10.578;2023-02-03T11:08:46;100594.88;;;23.99;34.58
59240;BME280;45010;53.640;10.578;2023-02-03T11:11:46;100608.31;;;24.04;34.45
59240;BME280;45010;53.640;10.578;2023-02-03T11:14:51;100613.53;;;23.99;34.47
59240;BME280;45010;53.640;10.578;2023-02-03T11:17:52;100612.84;;;24.04;34.31
59240;BME280;45010;53.640;10.578;2023-02-03T11:20:52;100618.94;;;24.04;34.29
59240;BME280;45010;53.640;10.578;2023-02-03T11:33:18;100632.66;;;24.08;34.34
59240;BME280;45010;53.640;10.578;2023-02-03T11:36:20;100652.13;;;24.09;34.38
59240;BME280;45010;53.640;10.578;2023-02-03T11:39:27;100640.25;;;24.04;34.45
59240;BME280;45010;53.640;10.578;2023-02-03T11:42:28;100653.75;;;24.10;34.24
59240;BME280;45010;53.640;10.578;2023-02-03T11:45:40;100623.72;;;24.02;34.55
59240;BME280;45010;53.640;10.578;2023-02-03T11:49:00;100635.09;;;24.10;34.61
59240;BME280;45010;53.640;10.578;2023-02-03T11:52:27;100642.66;;;24.13;34.41
59240;BME280;45010;53.640;10.578;2023-02-03T11:58:46;100626.72;;;24.06;34.22
59240;BME280;45010;53.640;10.578;2023-02-03T12:05:57;100657.38;;;24.15;34.23
59240;BME280;45010;53.640;10.578;2023-02-03T12:19:08;100666.75;;;24.18;34.16
59240;BME280;45010;53.640;10.578;2023-02-03T12:22:18;100658.50;;;24.20;34.13
59240;BME280;45010;53.640;10.578;2023-02-03T12:32:18;100682.25;;;24.21;34.01
59240;BME280;45010;53.640;10.578;2023-02-03T12:35:28;100664.19;;;24.11;33.70
59240;BME280;45010;53.640;10.578;2023-02-03T12:38:42;100673.22;;;24.22;33.79
59240;BME280;45010;53.640;10.578;2023-02-03T12:42:11;100664.31;;;24.16;33.74
59240;BME280;45010;53.640;10.578;2023-02-03T12:45:20;100659.69;;;24.24;33.92
59240;BME280;45010;53.640;10.578;2023-02-03T12:48:29;100671.16;;;24.24;33.72
59240;BME280;45010;53.640;10.578;2023-02-03T12:57:50;100664.88;;;24.18;33.55
59240;BME280;45010;53.640;10.578;2023-02-03T13:00:58;100658.97;;;24.16;33.61
59240;BME280;45010;53.640;10.578;2023-02-03T13:04:05;100683.44;;;24.25;33.46
59240;BME280;45010;53.640;10.578;2023-02-03T13:07:14;100672.78;;;24.25;33.62
59240;BME280;45010;53.640;10.578;2023-02-03T13:10:21;100654.00;;;24.20;33.59
59240;BME280;45010;53.640;10.578;2023-02-03T13:13:34;100662.13;;;24.25;33.63
59240;BME280;45010;53.640;10.578;2023-02-03T13:16:38;100685.06;;;24.26;33.67
59240;BME280;45010;53.640;10.578;2023-02-03T13:19:45;100677.06;;;24.26;33.46
59240;BME280;45010;53.640;10.578;2023-02-03T13:22:47;100673.22;;;24.22;33.87
59240;BME280;45010;53.640;10.578;2023-02-03T13:26:15;100681.22;;;24.22;33.54
59240;BME280;45010;53.640;10.578;2023-02-03T13:33:05;100690.38;;;24.26;33.82
59240;BME280;45010;53.640;10.578;2023-02-03T13:39:51;100703.72;;;24.26;33.73
59240;BME280;45010;53.640;10.578;2023-02-03T13:43:00;100694.53;;;24.22;33.98
59240;BME280;45010;53.640;10.578;2023-02-03T13:49:33;100711.25;;;24.29;33.54
59240;BME280;45010;53.640;10.578;2023-02-03T13:52:44;100699.78;;;24.29;33.81
59240;BME280;45010;53.640;10.578;2023-02-03T13:56:00;100679.13;;;24.12;33.67
59240;BME280;45010;53.640;10.578;2023-02-03T14:05:40;100681.81;;;24.24;33.69
59240;BME280;45010;53.640;10.578;2023-02-03T14:08:47;100697.34;;;24.27;33.69
59240;BME280;45010;53.640;10.578;2023-02-03T14:11:51;100707.66;;;24.24;33.83
59240;BME280;45010;53.640;10.578;2023-02-03T14:18:33;100704.75;;;24.25;33.84
59240;BME280;45010;53.640;10.578;2023-02-03T14:24:55;100727.13;;;24.24;33.69
59240;BME280;45010;53.640;10.578;2023-02-03T14:27:59;100741.16;;;24.31;34.04
59240;BME280;45010;53.640;10.578;2023-02-03T14:31:10;100748.09;;;24.33;34.02
59240;BME280;45010;53.640;10.578;2023-02-03T14:34:12;100752.59;;;24.32;33.97
59240;BME280;45010;53.640;10.578;2023-02-03T14:37:17;100745.44;;;24.33;33.91
59240;BME280;45010;53.640;10.578;2023-02-03T14:40:34;100734.66;;;24.27;33.98
59240;BME280;45010;53.640;10.578;2023-02-03T14:43:51;100758.75;;;24.33;34.21
59240;BME280;45010;53.640;10.578;2023-02-03T14:47:06;100749.72;;;24.34;34.05
59240;BME280;45010;53.640;10.578;2023-02-03T15:03:23;100780.56;;;24.29;34.45
59240;BME280;45010;53.640;10.578;2023-02-03T15:06:53;100767.81;;;24.31;34.32
59240;BME280;45010;53.640;10.578;2023-02-03T15:09:55;100794.59;;;24.37;34.41
59240;BME280;45010;53.640;10.578;2023-02-03T15:12:57;100787.50;;;24.30;34.26
59240;BME280;45010;53.640;10.578;2023-02-03T15:15:59;100801.53;;;24.38;34.28
59240;BME280;45010;53.640;10.578;2023-02-03T15:19:00;100798.75;;;24.33;34.02
59240;BME280;45010;53.640;10.578;2023-02-03T15:22:22;100813.25;;;24.37;34.09
59240;BME280;45010;53.640;10.578;2023-02-03T15:25:23;100809.53;;;24.38;34.25
59240;BME280;45010;53.640;10.578;2023-02-03T15:28:27;100817.53;;;24.38;34.13
59240;BME280;45010;53.640;10.578;2023-02-03T15:31:40;100818.31;;;24.38;34.09
59240;BME280;45010;53.640;10.578;2023-02-03T15:34:47;100809.25;;;24.27;34.23
59240;BME280;45010;53.640;10.578;2023-02-03T15:37:52;100795.44;;;24.18;34.04
59240;BME280;45010;53.640;10.578;2023-02-03T15:40:55;100825.41;;;24.33;34.00
59240;BME280;45010;53.640;10.578;2023-02-03T15:44:01;100831.66;;;24.38;34.04
59240;BME280;45010;53.640;10.578;2023-02-03T15:47:20;100832.47;;;24.39;33.88
59240;BME280;45010;53.640;10.578;2023-02-03T15:53:33;100821.81;;;24.39;34.20
59240;BME280;45010;53.640;10.578;2023-02-03T15:56:41;100820.19;;;24.38;34.04
59240;BME280;45010;53.640;10.578;2023-02-03T15:59:51;100832.47;;;24.39;34.07
59240;BME280;45010;53.640;10.578;2023-02-03T16:02:52;100823.44;;;24.40;33.85
59240;BME280;45010;53.640;10.578;2023-02-03T16:05:53;100837.81;;;24.39;34.12
59240;BME280;45010;53.640;10.578;2023-02-03T16:08:54;100843.16;;;24.39;34.30
59240;BME280;45010;53.640;10.578;2023-02-03T16:12:02;100849.38;;;24.33;34.08
59240;BME280;45010;53.640;10.578;2023-02-03T16:15:05;100862.38;;;24.41;34.17
59240;BME280;45010;53.640;10.578;2023-02-03T16:18:15;100858.69;;;24.42;34.08
59240;BME280;45010;53.640;10.578;2023-02-03T16:21:34;100855.66;;;24.38;34.05
59240;BME280;45010;53.640;10.578;2023-02-03T16:24:41;100865.50;;;24.38;34.12
59240;BME280;45010;53.640;10.578;2023-02-03T16:27:55;100869.81;;;24.39;34.04
59240;BME280;45010;53.640;10.578;2023-02-03T16:31:14;100883.28;;;24.44;33.98
59240;BME280;45010;53.640;10.578;2023-02-03T16:34:34;100890.22;;;24.45;34.17
59240;BME280;45010;53.640;10.578;2023-02-03T16:38:13;100876.75;;;24.40;33.88
59240;BME280;45010;53.640;10.578;2023-02-03T16:41:32;100892.88;;;24.45;34.04
59240;BME280;45010;53.640;10.578;2023-02-03T16:44:51;100895.34;;;24.47;34.17
59240;BME280;45010;53.640;10.578;2023-02-03T16:48:11;100904.13;;;24.47;33.81
59240;BME280;45010;53.640;10.578;2023-02-03T16:51:38;100897.66;;;24.43;34.07
59240;BME280;45010;53.640;10.578;2023-02-03T16:54:39;100911.56;;;24.45;34.08
59240;BME280;45010;53.640;10.578;2023-02-03T16:57:39;100917.03;;;24.50;33.95
59240;BME280;45010;53.640;10.578;2023-02-03T17:00:41;100895.28;;;24.35;34.03
59240;BME280;45010;53.640;10.578;2023-02-03T17:03:42;100914.94;;;24.52;34.34
59240;BME280;45010;53.640;10.578;2023-02-03T17:06:43;100933.38;;;24.54;34.63
59240;BME280;45010;53.640;10.578;2023-02-03T17:09:43;100961.66;;;24.55;34.70
59240;BME280;45010;53.640;10.578;2023-02-03T17:12:44;100970.28;;;24.57;34.89
59240;BME280;45010;53.640;10.578;2023-02-03T17:15:46;100965.59;;;24.52;35.08
59240;BME280;45010;53.640;10.578;2023-02-03T17:18:47;100969.22;;;24.58;35.25
59240;BME280;45010;53.640;10.578;2023-02-03T17:21:47;100973.31;;;24.61;35.47
59240;BME280;45010;53.640;10.578;2023-02-03T17:24:49;100969.59;;;24.62;36.09
59240;BME280;45010;53.640;10.578;2023-02-03T17:27:49;100974.72;;;24.63;36.08
59240;BME280;45010;53.640;10.578;2023-02-03T17:31:01;100960.09;;;24.66;36.44
59240;BME280;45010;53.640;10.578;2023-02-03T17:34:01;100962.53;;;24.67;36.42
59240;BME280;45010;53.640;10.578;2023-02-03T17:37:02;100970.09;;;24.70;36.62
59240;BME280;45010;53.640;10.578;2023-02-03T17:40:03;100975.22;;;24.72;37.09